Korce, Albania
Current Conditions -  °F | °C
As of 4:00 PM on Monday 22 Dec 2014 (Local Time) from LWOH Reporting Station
Clear Clear  
Wind Chill: 43°   Ceiling: Unl
Heat Index: 43°   Visibility: 6mi
Dew Point: 19°   Wind: 2mph
Humidity: 39%   Direction: 150°SSE
Pressure: 30.36"   Gusts: NA
Location:  40.62°N, 20.78°E
Report Text: LWOH 221400Z 15002KT CAVOK 06/M07 Q1028
Loading
Personal Weather Stations






























Interactive Weather Map New forecast layout! Learn more

10-Day Weather Forecast

Advertisements
Track Severe Weather on mobile